Amiret, Minnesota
Current Conditions -  °F | °C
As of 12:32 PM on Thursday 30 Oct 2014 (Local Time) from KTKC Reporting Station
Overcast Overcast  
Wind Chill: 41°   Ceiling: 6500
Heat Index: 47°   Visibility: 10mi
Dew Point: 39°   Wind: 14mph
Humidity: 74%   Direction: 360°N
Pressure: 30.11"   Gusts: NA
Location:  44.2253°N, 95.6512°W
Report Text: KTKC 301732Z AUTO 36012KT 10SM OVC065 08/04 A3011 RMK AO2 T00830040
Loading
Personal Weather Stations






























Interactive Weather Map New forecast layout! Learn more

10-Day Weather Forecast

Advertisements
Track Severe Weather on mobile